createdAt,value
2023-05-14T00:01:20.060Z,11.38
2023-05-14T00:03:46.831Z,11.80
2023-05-14T00:06:13.505Z,11.80
2023-05-14T00:08:40.353Z,11.73
2023-05-14T00:11:08.935Z,11.38
2023-05-14T00:13:36.223Z,12.35
2023-05-14T00:16:03.218Z,11.18
2023-05-14T00:18:29.960Z,11.80
2023-05-14T00:20:57.523Z,10.88
2023-05-14T00:23:24.302Z,10.38
2023-05-14T00:25:51.018Z,10.32
2023-05-14T00:28:17.722Z,10.30
2023-05-14T00:30:44.741Z,10.57
2023-05-14T00:33:11.400Z,10.93
2023-05-14T00:35:38.096Z,10.38
2023-05-14T00:38:04.886Z,9.80
2023-05-14T00:40:31.653Z,9.02
2023-05-14T00:42:58.278Z,10.13
2023-05-14T00:45:25.684Z,10.82
2023-05-14T00:47:53.622Z,10.30
2023-05-14T00:50:20.895Z,10.27
2023-05-14T00:52:47.830Z,9.73
2023-05-14T00:55:16.730Z,9.40
2023-05-14T00:57:43.810Z,9.95
2023-05-14T01:00:11.911Z,9.52
2023-05-14T01:02:38.701Z,10.05
2023-05-14T01:05:06.385Z,9.77
2023-05-14T01:07:51.680Z,9.30
2023-05-14T01:10:28.951Z,9.27
2023-05-14T01:13:10.676Z,9.15
2023-05-14T01:15:39.313Z,9.20
2023-05-14T01:18:11.465Z,9.80
2023-05-14T01:20:38.144Z,10.40
2023-05-14T01:23:04.913Z,9.13
2023-05-14T01:25:32.377Z,8.80
2023-05-14T01:28:18.943Z,9.40
2023-05-14T01:31:01.431Z,9.40
2023-05-14T01:33:29.636Z,9.27
2023-05-14T01:35:56.664Z,9.68
2023-05-14T01:38:24.264Z,8.68
2023-05-14T01:40:51.885Z,9.35
2023-05-14T01:43:19.416Z,9.48
2023-05-14T01:45:46.780Z,9.07
2023-05-14T01:48:13.573Z,9.70
2023-05-14T01:50:40.219Z,9.35
2023-05-14T01:53:07.052Z,9.05
2023-05-14T01:55:33.686Z,8.90
2023-05-14T01:58:00.267Z,8.85
2023-05-14T02:00:27.094Z,9.43
2023-05-14T02:02:53.770Z,9.25
2023-05-14T02:05:21.056Z,9.30
2023-05-14T02:07:47.835Z,9.40
2023-05-14T02:10:14.612Z,9.75
2023-05-14T02:12:41.222Z,8.82
2023-05-14T02:15:10.897Z,8.70
2023-05-14T02:17:37.636Z,9.10
2023-05-14T02:20:04.945Z,8.75
2023-05-14T02:22:31.744Z,9.60
2023-05-14T02:24:58.331Z,8.23
2023-05-14T02:27:24.988Z,8.95
2023-05-14T02:29:52.959Z,7.85
2023-05-14T02:32:19.666Z,8.35
2023-05-14T02:34:46.489Z,8.43
2023-05-14T02:37:13.242Z,8.45
2023-05-14T02:39:39.816Z,8.57
2023-05-14T02:42:07.107Z,8.43
2023-05-14T02:44:33.744Z,9.23
2023-05-14T02:47:00.644Z,8.63
2023-05-14T02:49:27.312Z,8.40
2023-05-14T02:51:54.411Z,8.77
2023-05-14T02:54:21.173Z,8.05
2023-05-14T02:56:47.879Z,8.70
2023-05-14T02:59:14.660Z,8.43
2023-05-14T03:01:41.777Z,9.35
2023-05-14T03:04:08.760Z,8.23
2023-05-14T03:06:35.577Z,8.63
2023-05-14T03:09:02.656Z,8.40
2023-05-14T03:11:29.289Z,8.18
2023-05-14T03:13:56.036Z,7.78
2023-05-14T03:16:22.961Z,7.90
2023-05-14T03:18:49.684Z,8.85
2023-05-14T03:21:16.454Z,8.70
2023-05-14T03:23:43.052Z,7.82
2023-05-14T03:26:09.695Z,8.88
2023-05-14T03:28:36.418Z,8.30
2023-05-14T03:31:03.117Z,8.85
2023-05-14T03:33:29.769Z,8.57
2023-05-14T03:35:56.382Z,9.20
2023-05-14T03:38:23.022Z,9.02
2023-05-14T03:40:49.782Z,9.15
2023-05-14T03:43:16.436Z,8.77
2023-05-14T03:45:43.055Z,8.45
2023-05-14T03:48:10.013Z,9.02
2023-05-14T03:50:36.757Z,8.23
2023-05-14T03:53:03.362Z,7.85
2023-05-14T03:55:30.160Z,8.65
2023-05-14T03:57:56.797Z,8.70
2023-05-14T04:00:23.691Z,8.38
2023-05-14T04:02:50.729Z,8.85
2023-05-14T04:05:17.482Z,7.85
2023-05-14T04:07:45.938Z,8.65
2023-05-14T04:10:14.089Z,8.25
2023-05-14T04:12:40.693Z,8.57
2023-05-14T04:15:08.174Z,9.02
2023-05-14T04:17:35.170Z,9.25
2023-05-14T04:20:02.032Z,8.48
2023-05-14T04:22:28.727Z,8.82
2023-05-14T04:24:55.370Z,8.90
2023-05-14T04:27:22.373Z,8.48
2023-05-14T04:29:50.343Z,8.38
2023-05-14T04:32:18.175Z,8.90
2023-05-14T04:34:44.880Z,9.02
2023-05-14T04:37:11.538Z,8.73
2023-05-14T04:39:38.592Z,8.45
2023-05-14T04:42:06.702Z,8.80
2023-05-14T04:44:34.789Z,7.60
2023-05-14T04:47:02.058Z,8.30
2023-05-14T04:49:29.122Z,7.82
2023-05-14T04:51:55.846Z,8.15
2023-05-14T04:54:22.809Z,8.25
2023-05-14T04:56:49.937Z,8.75
2023-05-14T04:59:16.612Z,8.48
2023-05-14T05:01:43.314Z,8.90
2023-05-14T05:04:10.256Z,8.43
2023-05-14T05:06:37.041Z,8.10
2023-05-14T05:09:04.483Z,7.63
2023-05-14T05:11:31.237Z,7.55
2023-05-14T05:13:58.023Z,8.05
2023-05-14T05:16:24.643Z,8.30
2023-05-14T05:18:51.473Z,8.57
2023-05-14T05:21:18.125Z,7.88
2023-05-14T05:23:44.742Z,9.43
2023-05-14T05:26:11.395Z,8.60
2023-05-14T05:28:38.077Z,7.75
2023-05-14T05:31:04.834Z,8.00
2023-05-14T05:33:31.499Z,7.95
2023-05-14T05:35:58.151Z,8.15
2023-05-14T05:38:24.862Z,8.35
2023-05-14T05:40:51.676Z,8.55
2023-05-14T05:43:18.335Z,8.55
2023-05-14T05:45:46.026Z,8.35
2023-05-14T05:48:12.715Z,8.13
2023-05-14T05:50:39.433Z,7.55
2023-05-14T05:53:06.173Z,8.73
2023-05-14T05:55:32.899Z,7.90
2023-05-14T05:57:59.562Z,7.28
2023-05-14T06:00:26.769Z,7.72
2023-05-14T06:02:53.673Z,7.85
2023-05-14T06:05:20.641Z,6.75
2023-05-14T06:07:47.483Z,7.43
2023-05-14T06:10:14.143Z,6.43
2023-05-14T06:12:40.853Z,6.72
2023-05-14T06:15:08.039Z,7.45
2023-05-14T06:17:34.694Z,7.10
2023-05-14T06:20:01.365Z,6.85
2023-05-14T06:22:28.160Z,6.80
2023-05-14T06:24:54.835Z,6.55
2023-05-14T06:27:21.425Z,7.50
2023-05-14T06:29:48.004Z,6.57
2023-05-14T06:32:15.796Z,6.65
2023-05-14T06:34:43.147Z,6.97
2023-05-14T06:37:10.484Z,6.78
2023-05-14T06:39:38.293Z,7.40
2023-05-14T06:42:05.455Z,6.43
2023-05-14T06:44:32.478Z,7.13
2023-05-14T06:46:59.353Z,6.70
2023-05-14T06:49:26.151Z,6.85
2023-05-14T06:51:53.855Z,6.30
2023-05-14T06:54:20.587Z,6.78
2023-05-14T06:56:47.229Z,7.13
2023-05-14T06:59:14.009Z,6.60
2023-05-14T07:01:41.034Z,6.28
2023-05-14T07:04:08.095Z,5.95
2023-05-14T07:06:34.941Z,6.72
2023-05-14T07:09:02.315Z,6.32
2023-05-14T07:11:29.269Z,6.55
2023-05-14T07:13:55.952Z,6.43
2023-05-14T07:16:22.695Z,5.88
2023-05-14T07:18:49.467Z,5.47
2023-05-14T07:21:16.388Z,5.43
2023-05-14T07:23:42.984Z,5.65
2023-05-14T07:26:09.711Z,5.38
2023-05-14T07:28:36.414Z,5.40
2023-05-14T07:31:08.828Z,5.65
2023-05-14T07:33:36.588Z,5.05
2023-05-14T07:36:03.292Z,5.10
2023-05-14T07:38:30.126Z,5.95
2023-05-14T07:40:56.761Z,5.20
2023-05-14T07:43:23.437Z,5.10
2023-05-14T07:45:50.183Z,5.38
2023-05-14T07:48:16.824Z,5.00
2023-05-14T07:50:43.631Z,4.93
2023-05-14T07:53:10.338Z,5.30
2023-05-14T07:55:37.010Z,5.40
2023-05-14T07:58:03.627Z,4.70
2023-05-14T08:00:30.435Z,5.00
2023-05-14T08:02:57.479Z,4.47
2023-05-14T08:05:24.279Z,4.55
2023-05-14T08:07:51.130Z,5.20
2023-05-14T08:10:17.789Z,5.35
2023-05-14T08:12:44.459Z,4.70
2023-05-14T08:15:11.265Z,4.13
2023-05-14T08:17:37.930Z,4.30
2023-05-14T08:20:06.638Z,3.80
2023-05-14T08:22:33.481Z,4.20
2023-05-14T08:25:00.999Z,3.63
2023-05-14T08:27:28.033Z,3.63
2023-05-14T08:29:54.735Z,3.70
2023-05-14T08:32:23.872Z,3.97
2023-05-14T08:34:51.589Z,3.53
2023-05-14T08:37:18.503Z,3.63
2023-05-14T08:39:45.195Z,3.53
2023-05-14T08:42:13.720Z,3.85
2023-05-14T08:44:50.072Z,3.85
2023-05-14T08:47:18.844Z,3.40
2023-05-14T08:49:49.577Z,3.33
2023-05-14T08:52:20.243Z,3.90
2023-05-14T08:54:48.233Z,3.50
2023-05-14T08:57:16.067Z,3.53
2023-05-14T08:59:42.697Z,3.40
2023-05-14T09:02:12.586Z,3.88
2023-05-14T09:04:40.999Z,3.22
2023-05-14T09:07:07.907Z,3.70
2023-05-14T09:09:35.033Z,3.47
2023-05-14T09:12:02.099Z,3.53
2023-05-14T09:14:28.812Z,3.28
2023-05-14T09:16:57.073Z,3.65
2023-05-14T09:19:24.318Z,3.00
2023-05-14T09:21:51.056Z,3.15
2023-05-14T09:24:22.593Z,3.35
2023-05-14T09:26:57.687Z,3.40
2023-05-14T09:29:29.905Z,3.53
2023-05-14T09:31:58.054Z,3.15
2023-05-14T09:34:26.553Z,2.90
2023-05-14T09:37:01.477Z,3.05
2023-05-14T09:39:29.446Z,3.08
2023-05-14T09:41:56.672Z,3.17
2023-05-14T09:44:24.337Z,3.40
2023-05-14T09:46:51.913Z,3.53
2023-05-14T09:49:18.784Z,3.22
2023-05-14T09:51:45.713Z,3.42
2023-05-14T09:54:12.475Z,3.95
2023-05-14T09:56:39.656Z,3.10
2023-05-14T09:59:06.583Z,3.22
2023-05-14T10:01:33.553Z,3.17
2023-05-14T10:04:02.471Z,3.17
2023-05-14T10:06:33.426Z,3.05
2023-05-14T10:09:03.544Z,3.30
2023-05-14T10:14:18.502Z,3.35
2023-05-14T10:16:53.366Z,3.45
2023-05-14T10:19:25.111Z,4.05
2023-05-14T10:22:05.064Z,3.55
2023-05-14T10:24:32.688Z,3.35
2023-05-14T10:26:59.620Z,3.17
2023-05-14T10:29:37.603Z,3.38
2023-05-14T10:32:08.997Z,3.67
2023-05-14T10:34:46.363Z,3.28
2023-05-14T10:37:15.720Z,3.75
2023-05-14T10:40:14.530Z,3.35
2023-05-14T10:42:43.563Z,3.85
2023-05-14T10:45:12.873Z,3.45
2023-05-14T10:47:45.235Z,3.43
2023-05-14T10:50:14.312Z,3.22
2023-05-14T10:52:43.414Z,4.22
2023-05-14T10:55:13.624Z,3.60
2023-05-14T10:57:43.409Z,3.72
2023-05-14T11:00:12.526Z,3.53
2023-05-14T11:02:40.901Z,3.92
2023-05-14T11:05:10.650Z,3.55
2023-05-14T11:07:39.969Z,3.60
2023-05-14T11:10:18.128Z,3.65
2023-05-14T11:12:46.809Z,4.05
2023-05-14T11:15:24.860Z,4.25
2023-05-14T11:17:52.734Z,3.63
2023-05-14T11:20:20.490Z,4.10
2023-05-14T11:22:48.056Z,3.65
2023-05-14T11:25:15.432Z,3.53
2023-05-14T11:27:44.594Z,4.28
2023-05-14T11:30:21.552Z,3.53
2023-05-14T11:32:50.205Z,3.45
2023-05-14T11:35:17.906Z,3.80
2023-05-14T11:37:52.006Z,3.65
2023-05-14T11:40:19.056Z,3.83
2023-05-14T11:42:46.061Z,3.85
2023-05-14T11:45:14.261Z,3.58
2023-05-14T11:47:42.717Z,4.15
2023-05-14T11:50:10.033Z,3.70
2023-05-14T11:52:41.401Z,3.60
2023-05-14T11:55:14.199Z,3.83
2023-05-14T11:57:41.312Z,3.55
2023-05-14T12:00:09.468Z,3.40
2023-05-14T12:02:37.185Z,3.50
2023-05-14T12:05:07.231Z,3.40
2023-05-14T12:07:33.890Z,3.60
2023-05-14T12:10:04.104Z,3.13
2023-05-14T12:12:36.347Z,3.30
2023-05-14T12:15:10.259Z,3.50
2023-05-14T12:17:38.346Z,3.45
2023-05-14T12:20:08.173Z,3.70
2023-05-14T12:22:36.834Z,3.63
2023-05-14T12:25:03.993Z,2.85
2023-05-14T12:27:30.920Z,4.72
2023-05-14T12:32:35.943Z,6.50
2023-05-14T12:35:03.069Z,4.03
2023-05-14T12:37:31.285Z,5.97
2023-05-14T12:39:58.162Z,6.75
2023-05-14T12:42:24.784Z,3.08
2023-05-14T12:44:51.368Z,3.97
2023-05-14T12:47:18.404Z,4.65
2023-05-14T12:49:45.110Z,3.20
2023-05-14T12:54:43.327Z,3.72
2023-05-14T12:57:10.389Z,3.10
2023-05-14T12:59:37.057Z,3.78
2023-05-14T13:02:03.763Z,3.30
2023-05-14T13:04:30.521Z,3.22
2023-05-14T13:06:57.213Z,3.67
2023-05-14T13:09:23.996Z,3.50
2023-05-14T13:11:50.651Z,2.88
2023-05-14T13:14:18.955Z,3.30
2023-05-14T13:16:46.885Z,3.30
2023-05-14T13:19:13.601Z,3.15
2023-05-14T13:21:40.363Z,2.80
2023-05-14T13:24:07.175Z,2.90
2023-05-14T13:26:33.824Z,3.72
2023-05-14T13:29:00.525Z,3.42
2023-05-14T13:31:27.281Z,3.28
2023-05-14T13:33:54.230Z,3.33
2023-05-14T13:36:21.075Z,3.35
2023-05-14T13:38:47.755Z,3.05
2023-05-14T13:41:14.510Z,2.95
2023-05-14T13:43:41.221Z,3.35
2023-05-14T13:46:07.955Z,2.95
2023-05-14T13:48:36.487Z,3.42
2023-05-14T13:51:03.416Z,3.00
2023-05-14T13:53:30.523Z,3.20
2023-05-14T13:55:58.466Z,2.67
2023-05-14T13:58:25.696Z,2.83
2023-05-14T14:00:52.722Z,3.00
2023-05-14T14:03:19.797Z,2.92
2023-05-14T14:05:46.453Z,2.60
2023-05-14T14:08:23.554Z,2.67
2023-05-14T14:10:51.889Z,3.00
2023-05-14T14:13:18.509Z,2.90
2023-05-14T14:15:45.290Z,3.28
2023-05-14T14:18:11.914Z,2.88
2023-05-14T14:20:38.531Z,2.92
2023-05-14T14:23:05.322Z,3.10
2023-05-14T14:25:31.942Z,3.05
2023-05-14T14:27:58.591Z,2.80
2023-05-14T14:30:25.369Z,2.88
2023-05-14T14:32:52.266Z,2.55
2023-05-14T14:35:19.936Z,3.08
2023-05-14T14:37:49.211Z,3.08
2023-05-14T14:40:16.908Z,2.97
2023-05-14T14:42:43.865Z,3.20
2023-05-14T14:45:11.309Z,3.22
2023-05-14T14:47:37.954Z,3.00
2023-05-14T14:50:05.450Z,2.95
2023-05-14T14:52:32.258Z,3.05
2023-05-14T14:54:58.997Z,3.00
2023-05-14T14:57:26.675Z,3.53
2023-05-14T14:59:53.397Z,3.15
2023-05-14T15:02:20.280Z,3.00
2023-05-14T15:04:46.972Z,2.90
2023-05-14T15:07:15.868Z,3.20
2023-05-14T15:09:42.793Z,2.90
2023-05-14T15:12:10.900Z,2.45
2023-05-14T15:14:37.579Z,3.00
2023-05-14T15:17:04.581Z,3.20
2023-05-14T15:19:32.405Z,3.50
2023-05-14T15:21:59.102Z,3.70
2023-05-14T15:24:26.453Z,3.40
2023-05-14T15:26:53.769Z,2.92
2023-05-14T15:29:20.613Z,3.25
2023-05-14T15:31:47.481Z,2.97
2023-05-14T15:34:14.204Z,3.10
2023-05-14T15:36:40.949Z,3.05
2023-05-14T15:39:10.222Z,3.15
2023-05-14T15:41:36.996Z,2.93
2023-05-14T15:44:03.851Z,2.88
2023-05-14T15:46:30.942Z,2.90
2023-05-14T15:48:58.706Z,3.05
2023-05-14T15:51:25.498Z,2.90
2023-05-14T15:53:54.131Z,2.90
2023-05-14T15:56:22.757Z,3.40
2023-05-14T15:58:49.707Z,3.10
2023-05-14T16:01:16.423Z,3.38
2023-05-14T16:03:43.275Z,3.55
2023-05-14T16:06:10.323Z,3.70
2023-05-14T16:08:37.247Z,3.50
2023-05-14T16:11:03.978Z,3.22
2023-05-14T16:13:30.630Z,3.25
2023-05-14T16:15:57.419Z,4.20
2023-05-14T16:18:25.219Z,3.65
2023-05-14T16:20:52.125Z,3.72
2023-05-14T16:23:18.937Z,3.45
2023-05-14T16:25:45.904Z,3.90
2023-05-14T16:28:13.380Z,3.92
2023-05-14T16:30:40.110Z,3.60
2023-05-14T16:33:06.838Z,3.83
2023-05-14T16:35:33.537Z,3.42
2023-05-14T16:38:00.304Z,3.47
2023-05-14T16:40:26.966Z,3.40
2023-05-14T16:42:53.615Z,3.28
2023-05-14T16:45:20.374Z,3.53
2023-05-14T16:47:47.063Z,3.10
2023-05-14T16:50:13.793Z,3.15
2023-05-14T16:52:40.493Z,3.55
2023-05-14T16:55:07.583Z,3.25
2023-05-14T16:57:34.709Z,3.40
2023-05-14T17:00:04.203Z,3.33
2023-05-14T17:02:31.143Z,3.55
2023-05-14T17:04:57.980Z,4.00
2023-05-14T17:07:24.769Z,3.47
2023-05-14T17:09:51.411Z,3.72
2023-05-14T17:12:18.051Z,3.85
2023-05-14T17:14:44.648Z,3.67
2023-05-14T17:17:11.412Z,3.47
2023-05-14T17:19:38.167Z,3.42
2023-05-14T17:22:05.906Z,3.38
2023-05-14T17:24:32.744Z,3.28
2023-05-14T17:26:59.474Z,2.75
2023-05-14T17:29:26.321Z,3.10
2023-05-14T17:31:53.084Z,3.08
2023-05-14T17:34:19.894Z,2.78
2023-05-14T17:36:46.489Z,2.90
2023-05-14T17:39:13.176Z,3.35
2023-05-14T17:41:42.088Z,2.80
2023-05-14T17:44:10.725Z,2.63
2023-05-14T17:46:39.415Z,3.45
2023-05-14T17:49:06.095Z,3.40
2023-05-14T17:51:32.886Z,3.17
2023-05-14T17:53:59.610Z,3.00
2023-05-14T17:56:26.289Z,3.30
2023-05-14T17:58:53.039Z,3.05
2023-05-14T18:01:19.686Z,3.08
2023-05-14T18:03:46.529Z,3.50
2023-05-14T18:06:13.485Z,3.28
2023-05-14T18:08:40.150Z,3.25
2023-05-14T18:11:06.761Z,3.42
2023-05-14T18:13:33.451Z,3.20
2023-05-14T18:16:00.742Z,3.45
2023-05-14T18:18:27.653Z,3.67
2023-05-14T18:20:54.362Z,3.72
2023-05-14T18:23:21.158Z,3.58
2023-05-14T18:25:48.379Z,3.70
2023-05-14T18:28:15.593Z,3.45
2023-05-14T18:30:43.535Z,3.58
2023-05-14T18:33:10.521Z,3.22
2023-05-14T18:35:37.309Z,3.55
2023-05-14T18:38:19.608Z,3.75
2023-05-14T18:40:46.621Z,3.75
2023-05-14T18:43:13.560Z,4.72
2023-05-14T18:45:40.477Z,4.60
2023-05-14T18:48:07.347Z,4.90
2023-05-14T18:50:33.991Z,5.00
2023-05-14T18:53:01.099Z,5.63
2023-05-14T18:55:27.798Z,5.70
2023-05-14T18:57:54.625Z,5.57
2023-05-14T19:00:21.465Z,6.35
2023-05-14T19:02:48.264Z,6.05
2023-05-14T19:05:15.172Z,6.72
2023-05-14T19:07:42.952Z,5.90
2023-05-14T19:10:10.999Z,5.70
2023-05-14T19:12:37.637Z,5.93
2023-05-14T19:15:04.580Z,6.10
2023-05-14T19:17:32.918Z,5.95
2023-05-14T19:19:59.647Z,5.70
2023-05-14T19:22:26.286Z,5.63
2023-05-14T19:24:52.975Z,5.35
2023-05-14T19:27:20.715Z,5.57
2023-05-14T19:29:47.301Z,5.55
2023-05-14T19:32:13.948Z,5.25
2023-05-14T19:34:41.045Z,5.35
2023-05-14T19:37:07.867Z,5.20
2023-05-14T19:39:34.496Z,5.35
2023-05-14T19:42:01.288Z,5.20
2023-05-14T19:44:28.014Z,5.28
2023-05-14T19:46:54.793Z,5.15
2023-05-14T19:49:21.543Z,6.20
2023-05-14T19:51:48.292Z,6.07
2023-05-14T19:54:15.017Z,5.40
2023-05-14T19:56:42.053Z,5.95
2023-05-14T19:59:08.793Z,5.60
2023-05-14T20:01:35.530Z,6.20
2023-05-14T20:04:02.567Z,6.28
2023-05-14T20:06:29.637Z,6.45
2023-05-14T20:08:56.360Z,6.75
2023-05-14T20:11:22.977Z,6.55
2023-05-14T20:13:49.789Z,6.95
2023-05-14T20:16:16.909Z,6.60
2023-05-14T20:18:44.250Z,6.70
2023-05-14T20:21:11.131Z,6.68
2023-05-14T20:23:37.948Z,7.22
2023-05-14T20:26:04.786Z,6.63
2023-05-14T20:28:31.634Z,6.47
2023-05-14T20:31:03.097Z,7.25
2023-05-14T20:33:30.712Z,7.57
2023-05-14T20:35:57.477Z,7.85
2023-05-14T20:38:25.740Z,7.05
2023-05-14T20:40:52.621Z,8.13
2023-05-14T20:43:19.423Z,7.95
2023-05-14T20:45:46.151Z,7.80
2023-05-14T20:48:16.222Z,7.95
2023-05-14T20:53:09.995Z,8.68
2023-05-14T20:55:36.716Z,7.85
2023-05-14T20:58:03.432Z,7.88
2023-05-14T21:00:30.163Z,7.70
2023-05-14T21:02:57.166Z,8.27
2023-05-14T21:05:24.216Z,8.18
2023-05-14T21:07:51.127Z,9.13
2023-05-14T21:10:17.794Z,7.97
2023-05-14T21:12:44.985Z,8.15
2023-05-14T21:15:12.089Z,8.00
2023-05-14T21:17:38.921Z,8.48
2023-05-14T21:20:06.308Z,8.25
2023-05-14T21:22:33.130Z,8.77
2023-05-14T21:24:59.902Z,7.80
2023-05-14T21:27:26.652Z,8.65
2023-05-14T21:29:53.380Z,8.93
2023-05-14T21:32:22.160Z,7.93
2023-05-14T21:34:49.042Z,8.48
2023-05-14T21:37:15.791Z,7.90
2023-05-14T21:39:42.461Z,7.72
2023-05-14T21:42:09.532Z,8.10
2023-05-14T21:44:36.354Z,8.02
2023-05-14T21:47:03.819Z,8.80
2023-05-14T21:49:30.518Z,8.68
2023-05-14T21:51:57.378Z,8.60
2023-05-14T21:54:24.407Z,9.38
2023-05-14T21:56:51.165Z,8.88
2023-05-14T21:59:17.895Z,7.95
2023-05-14T22:04:14.363Z,9.48
2023-05-14T22:06:41.300Z,8.35
2023-05-14T22:09:10.948Z,9.48
2023-05-14T22:11:37.640Z,9.10
2023-05-14T22:14:04.243Z,9.25
2023-05-14T22:16:30.891Z,10.18
2023-05-14T22:18:57.927Z,11.27
2023-05-14T22:21:27.462Z,12.13
2023-05-14T22:23:54.158Z,11.38
2023-05-14T22:26:21.838Z,12.90
2023-05-14T22:28:49.618Z,11.80
2023-05-14T22:31:16.371Z,11.85
2023-05-14T22:33:43.045Z,12.32
2023-05-14T22:36:10.484Z,11.65
2023-05-14T22:38:37.318Z,10.90
2023-05-14T22:41:03.961Z,10.63
2023-05-14T22:43:30.566Z,10.98
2023-05-14T22:45:57.443Z,10.73
2023-05-14T22:48:24.095Z,10.93
2023-05-14T22:50:51.897Z,10.68
2023-05-14T22:53:18.596Z,10.32
2023-05-14T22:55:45.558Z,10.05
2023-05-14T22:58:12.408Z,10.27
2023-05-14T23:00:39.149Z,10.43
2023-05-14T23:03:05.964Z,10.07
2023-05-14T23:05:32.743Z,9.85
2023-05-14T23:07:59.485Z,10.88
2023-05-14T23:10:26.756Z,10.18
2023-05-14T23:12:53.449Z,9.80
2023-05-14T23:15:20.078Z,9.85
2023-05-14T23:17:47.020Z,10.32
2023-05-14T23:20:13.854Z,9.30
2023-05-14T23:22:40.756Z,9.90
2023-05-14T23:25:08.157Z,10.27
2023-05-14T23:27:38.457Z,11.52
2023-05-14T23:30:05.773Z,10.43
2023-05-14T23:32:32.626Z,10.45
2023-05-14T23:34:59.508Z,10.50
2023-05-14T23:37:26.272Z,10.60
2023-05-14T23:39:53.471Z,10.05
2023-05-14T23:42:20.286Z,12.60
2023-05-14T23:44:47.044Z,14.57
2023-05-14T23:47:13.829Z,14.27
2023-05-14T23:49:40.868Z,15.52
2023-05-14T23:52:07.774Z,14.73
2023-05-14T23:54:34.435Z,13.70
2023-05-14T23:57:02.963Z,12.95
2023-05-14T23:59:29.589Z,11.82
